Time,TemperatureF,DewpointF,PressureIn,WindDirection,WindDirectionDegrees,WindSpeedMPH,WindSpeedGustMPH,Humidity,HourlyPrecipIn,Conditions,Clouds,dailyrainin,SoftwareType,DateUTC
2013-09-02 00:00:00,64.1,57.7,30.00,North,1,5.2,8.4,80,0.00,,,0.00,VWS V13.01,2013-09-02 05:00:00,
2013-09-02 00:01:00,73.9,58.1,29.86,NNW,335,4.7,7.2,58,0.00,,,0.00,VWS V13.01,2013-09-02 05:01:00,
2013-09-02 00:02:00,63.7,57.3,30.00,NE,44,6.6,7.1,80,0.00,,,0.00,VWS V13.01,2013-09-02 05:02:00,
2013-09-02 00:06:00,73.3,57.7,29.86,WNW,295,4.8,9.0,58,0.00,,,0.00,VWS V13.01,2013-09-02 05:06:00,
2013-09-02 00:11:00,73.4,58.1,29.86,WNW,294,8.3,9.7,59,0.00,,,0.00,VWS V13.01,2013-09-02 05:11:00,
2013-09-02 00:16:00,73.2,58.2,29.87,WNW,301,7.6,8.0,59,0.00,,,0.00,VWS V13.01,2013-09-02 05:16:00,
2013-09-02 00:21:00,73.1,58.3,29.87,WNW,300,6.5,7.4,60,0.00,,,0.00,VWS V13.01,2013-09-02 05:21:00,
2013-09-02 00:26:00,73.0,58.4,29.87,WNW,301,5.8,7.1,60,0.00,,,0.00,VWS V13.01,2013-09-02 05:26:00,
2013-09-02 00:31:00,73.2,58.7,29.87,NNW,340,4.7,6.4,60,0.00,,,0.00,VWS V13.01,2013-09-02 05:31:00,
2013-09-02 00:36:00,72.5,58.3,29.87,NW,326,8.0,8.2,61,0.00,,,0.00,VWS V13.01,2013-09-02 05:36:00,
2013-09-02 00:41:00,72.4,58.5,29.87,NW,311,4.8,8.5,62,0.00,,,0.00,VWS V13.01,2013-09-02 05:41:00,
2013-09-02 00:46:00,72.3,58.6,29.86,NW,319,7.5,8.1,62,0.00,,,0.00,VWS V13.01,2013-09-02 05:46:00,
2013-09-02 00:51:00,72.0,58.5,29.86,NNW,339,8.7,10.6,62,0.00,,,0.00,VWS V13.01,2013-09-02 05:51:00,
2013-09-02 00:56:00,72.0,58.5,29.86,WNW,300,6.0,8.9,62,0.00,,,0.00,VWS V13.01,2013-09-02 05:56:00,
2013-09-02 01:01:00,72.2,58.8,29.86,NW,326,5.2,5.2,63,0.00,,,0.00,VWS V13.01,2013-09-02 06:01:00,
2013-09-02 01:06:00,71.7,58.5,29.86,North,359,2.6,7.8,63,0.00,,,0.00,VWS V13.01,2013-09-02 06:06:00,
2013-09-02 01:11:00,71.7,58.6,29.86,NW,314,4.9,7.8,63,0.00,,,0.00,VWS V13.01,2013-09-02 06:11:00,
2013-09-02 01:16:00,71.4,58.5,29.86,NNW,342,3.0,6.0,64,0.00,,,0.00,VWS V13.01,2013-09-02 06:16:00,
2013-09-02 01:21:00,71.4,58.7,29.86,North,359,5.4,7.2,64,0.00,,,0.00,VWS V13.01,2013-09-02 06:21:00,
2013-09-02 01:26:00,71.2,59.1,29.86,NW,316,4.2,7.8,66,0.00,,,0.00,VWS V13.01,2013-09-02 06:26:00,
2013-09-02 01:31:00,71.0,59.2,29.86,NW,323,4.6,5.8,66,0.00,,,0.00,VWS V13.01,2013-09-02 06:31:00,
2013-09-02 01:36:00,70.5,59.1,29.86,NW,316,4.8,5.7,67,0.00,,,0.00,VWS V13.01,2013-09-02 06:36:00,
2013-09-02 01:41:00,70.3,59.2,29.86,NW,322,3.4,3.6,68,0.00,,,0.00,VWS V13.01,2013-09-02 06:41:00,
2013-09-02 01:46:00,70.2,59.6,29.86,NNW,333,2.4,3.6,69,0.00,,,0.00,VWS V13.01,2013-09-02 06:46:00,
2013-09-02 01:51:00,69.8,59.6,29.86,WNW,292,3.9,3.9,70,0.00,,,0.00,VWS V13.01,2013-09-02 06:51:00,
2013-09-02 01:56:00,69.9,60.1,29.86,WNW,288,4.2,4.8,71,0.00,,,0.00,VWS V13.01,2013-09-02 06:56:00,
2013-09-02 02:01:00,70.0,60.6,29.86,WNW,302,5.9,6.3,72,0.00,,,0.00,VWS V13.01,2013-09-02 07:01:00,
2013-09-02 02:06:00,69.5,60.6,29.86,NW,309,5.5,6.0,73,0.00,,,0.00,VWS V13.01,2013-09-02 07:06:00,
2013-09-02 02:11:00,69.1,60.9,29.86,WNW,297,4.7,7.5,75,0.00,,,0.00,VWS V13.01,2013-09-02 07:11:00,
2013-09-02 02:16:00,68.4,60.8,29.86,NW,311,4.8,5.5,77,0.00,,,0.00,VWS V13.01,2013-09-02 07:16:00,
2013-09-02 02:21:00,68.6,61.6,29.86,NW,304,5.3,5.8,78,0.00,,,0.00,VWS V13.01,2013-09-02 07:21:00,
2013-09-02 02:26:00,68.4,62.0,29.86,WNW,300,4.7,5.0,80,0.00,,,0.00,VWS V13.01,2013-09-02 07:26:00,
2013-09-02 02:31:00,67.7,61.7,29.86,WNW,302,4.8,5.5,81,0.00,,,0.00,VWS V13.01,2013-09-02 07:31:00,
2013-09-02 02:36:00,67.9,62.1,29.86,NW,311,5.0,6.0,82,0.00,,,0.00,VWS V13.01,2013-09-02 07:36:00,
2013-09-02 02:41:00,67.8,62.3,29.86,NW,308,4.3,6.2,83,0.00,,,0.00,VWS V13.01,2013-09-02 07:41:00,
2013-09-02 02:46:00,67.6,62.4,29.86,NW,312,6.2,6.3,83,0.00,,,0.00,VWS V13.01,2013-09-02 07:46:00,
2013-09-02 02:51:00,67.3,62.3,29.86,NW,308,4.9,5.2,84,0.00,,,0.00,VWS V13.01,2013-09-02 07:51:00,
2013-09-02 02:56:00,67.3,62.5,29.86,WNW,297,6.2,7.5,85,0.00,,,0.00,VWS V13.01,2013-09-02 07:56:00,
2013-09-02 03:01:00,67.2,62.5,29.86,NW,319,6.6,7.0,85,0.00,,,0.00,VWS V13.01,2013-09-02 08:01:00,
2013-09-02 03:06:00,67.3,62.8,29.86,NW,304,6.0,6.4,86,0.00,,,0.00,VWS V13.01,2013-09-02 08:06:00,
2013-09-02 03:11:00,67.1,62.8,29.86,NW,309,7.9,8.4,86,0.00,,,0.00,VWS V13.01,2013-09-02 08:11:00,
2013-09-02 03:16:00,66.8,62.7,29.86,WNW,300,6.8,8.0,87,0.00,,,0.00,VWS V13.01,2013-09-02 08:16:00,
2013-09-02 03:21:00,67.0,63.1,29.87,NW,316,5.8,7.5,87,0.00,,,0.00,VWS V13.01,2013-09-02 08:21:00,
2013-09-02 03:26:00,66.6,62.8,29.87,NW,312,6.5,7.1,88,0.00,,,0.00,VWS V13.01,2013-09-02 08:26:00,
2013-09-02 03:31:00,66.6,63.0,29.87,NW,326,5.2,7.6,88,0.00,,,0.00,VWS V13.01,2013-09-02 08:31:00,
2013-09-02 03:36:00,66.3,63.0,29.87,NNW,336,6.5,8.6,89,0.00,,,0.00,VWS V13.01,2013-09-02 08:36:00,
2013-09-02 03:41:00,65.9,62.7,29.87,NW,311,6.0,7.3,89,0.00,,,0.00,VWS V13.01,2013-09-02 08:41:00,
2013-09-02 03:46:00,65.9,62.8,29.87,NW,307,7.7,7.7,90,0.00,,,0.00,VWS V13.01,2013-09-02 08:46:00,
2013-09-02 03:51:00,65.8,62.8,29.87,NW,315,5.5,8.5,90,0.00,,,0.00,VWS V13.01,2013-09-02 08:51:00,
2013-09-02 03:56:00,65.8,62.9,29.87,West,281,4.9,6.0,90,0.00,,,0.00,VWS V13.01,2013-09-02 08:56:00,
2013-09-02 04:01:00,65.9,63.1,29.87,NW,315,4.8,6.7,91,0.00,,,0.00,VWS V13.01,2013-09-02 09:01:00,
2013-09-02 04:06:00,65.6,62.9,29.87,NW,305,6.1,8.3,91,0.00,,,0.00,VWS V13.01,2013-09-02 09:06:00,
2013-09-02 04:11:00,65.6,63.1,29.87,WNW,302,5.0,7.3,92,0.00,,,0.00,VWS V13.01,2013-09-02 09:11:00,
2013-09-02 04:16:00,65.2,62.9,29.87,NW,311,7.6,8.7,92,0.00,,,0.00,VWS V13.01,2013-09-02 09:16:00,
2013-09-02 04:21:00,65.6,63.4,29.87,NW,312,6.6,6.9,92,0.00,,,0.00,VWS V13.01,2013-09-02 09:21:00,
2013-09-02 04:26:00,65.6,63.5,29.88,NW,323,6.6,7.3,93,0.00,,,0.00,VWS V13.01,2013-09-02 09:26:00,
2013-09-02 04:31:00,65.2,63.2,29.88,NW,322,5.0,7.1,93,0.00,,,0.00,VWS V13.01,2013-09-02 09:31:00,
2013-09-02 04:36:00,65.2,63.3,29.88,NNW,339,4.8,6.8,94,0.00,,,0.00,VWS V13.01,2013-09-02 09:36:00,
2013-09-02 04:41:00,65.1,63.2,29.88,NNW,328,4.3,5.9,94,0.00,,,0.00,VWS V13.01,2013-09-02 09:41:00,
2013-09-02 04:46:00,65.0,63.2,29.88,NW,318,3.9,7.5,94,0.00,,,0.00,VWS V13.01,2013-09-02 09:46:00,
2013-09-02 04:51:00,64.7,63.0,29.88,NW,304,6.9,8.2,94,0.00,,,0.00,VWS V13.01,2013-09-02 09:51:00,
2013-09-02 04:56:00,65.0,63.3,29.89,NW,312,5.6,6.5,94,0.00,,,0.00,VWS V13.01,2013-09-02 09:56:00,
2013-09-02 05:01:00,64.9,63.3,29.89,NW,304,6.2,8.4,95,0.00,,,0.00,VWS V13.01,2013-09-02 10:01:00,
2013-09-02 05:06:00,64.9,63.5,29.89,NW,314,5.5,7.1,95,0.00,,,0.00,VWS V13.01,2013-09-02 10:06:00,
2013-09-02 05:11:00,64.8,63.4,29.89,NNW,343,4.3,7.5,95,0.00,,,0.00,VWS V13.01,2013-09-02 10:11:00,
2013-09-02 05:16:00,64.4,63.0,29.89,NW,308,6.0,7.3,95,0.00,,,0.00,VWS V13.01,2013-09-02 10:16:00,
2013-09-02 05:21:00,64.7,63.4,29.89,NW,323,6.2,6.2,96,0.00,,,0.00,VWS V13.01,2013-09-02 10:21:00,
2013-09-02 05:26:00,64.8,63.5,29.89,NW,319,3.3,5.2,96,0.00,,,0.00,VWS V13.01,2013-09-02 10:26:00,
2013-09-02 05:31:00,64.4,63.1,29.89,NNW,330,4.2,5.5,96,0.00,,,0.00,VWS V13.01,2013-09-02 10:31:00,
2013-09-02 05:36:00,64.1,62.9,29.89,WNW,297,6.0,6.6,96,0.00,,,0.00,VWS V13.01,2013-09-02 10:36:00,
2013-09-02 05:41:00,64.5,63.3,29.90,NW,305,4.2,6.1,96,0.00,,,0.00,VWS V13.01,2013-09-02 10:41:00,
2013-09-02 05:46:00,64.4,63.2,29.90,NW,308,4.5,6.1,96,0.00,,,0.00,VWS V13.01,2013-09-02 10:46:00,
2013-09-02 05:51:00,64.2,63.2,29.90,North,8,3.9,5.7,96,0.00,,,0.00,VWS V13.01,2013-09-02 10:51:00,
2013-09-02 05:56:00,64.2,63.2,29.90,WNW,291,6.8,7.0,97,0.00,,,0.00,VWS V13.01,2013-09-02 10:56:00,
2013-09-02 06:01:00,64.1,63.2,29.90,NNW,329,6.6,8.6,97,0.00,,,0.00,VWS V13.01,2013-09-02 11:01:00,
2013-09-02 06:06:00,64.2,63.2,29.90,NW,323,5.1,8.6,97,0.00,,,0.00,VWS V13.01,2013-09-02 11:06:00,
2013-09-02 06:11:00,64.0,63.1,29.90,NW,318,5.8,6.3,97,0.00,,,0.00,VWS V13.01,2013-09-02 11:11:00,
2013-09-02 06:16:00,64.1,63.2,29.90,NW,314,5.4,6.6,97,0.00,,,0.00,VWS V13.01,2013-09-02 11:16:00,
2013-09-02 06:21:00,64.2,63.3,29.91,NW,316,3.0,5.2,97,0.00,,,0.00,VWS V13.01,2013-09-02 11:21:00,
2013-09-02 06:26:00,63.9,63.0,29.91,NW,315,1.9,3.1,97,0.00,,,0.00,VWS V13.01,2013-09-02 11:26:00,
2013-09-02 06:31:00,64.0,63.1,29.91,NW,307,3.3,5.1,97,0.00,,,0.00,VWS V13.01,2013-09-02 11:31:00,
2013-09-02 06:36:00,64.0,63.1,29.91,North,359,3.4,4.2,97,0.00,,,0.00,VWS V13.01,2013-09-02 11:36:00,
2013-09-02 06:41:00,64.2,63.3,29.92,NNW,330,3.3,3.9,97,0.00,,,0.00,VWS V13.01,2013-09-02 11:41:00,
2013-09-02 06:46:00,64.2,63.3,29.92,NNE,14,2.4,4.1,97,0.00,,,0.00,VWS V13.01,2013-09-02 11:46:00,
2013-09-02 06:51:00,64.1,63.2,29.92,North,354,1.9,4.4,97,0.00,,,0.00,VWS V13.01,2013-09-02 11:51:00,
2013-09-02 06:56:00,64.1,63.2,29.92,West,280,1.6,3.2,97,0.00,,,0.00,VWS V13.01,2013-09-02 11:56:00,
2013-09-02 07:01:00,64.2,63.3,29.92,NNE,15,2.5,2.5,97,0.00,,,0.00,VWS V13.01,2013-09-02 12:01:00,
2013-09-02 07:06:00,64.3,63.4,29.92,NW,316,1.8,4.0,97,0.00,,,0.00,VWS V13.01,2013-09-02 12:06:00,
2013-09-02 07:11:00,64.3,63.5,29.93,NNE,22,2.1,2.4,97,0.00,,,0.00,VWS V13.01,2013-09-02 12:11:00,
2013-09-02 07:16:00,64.3,63.5,29.93,ENE,76,2.8,4.4,97,0.00,,,0.00,VWS V13.01,2013-09-02 12:16:00,
2013-09-02 07:21:00,64.6,63.9,29.93,NE,51,1.4,3.9,98,0.00,,,0.00,VWS V13.01,2013-09-02 12:21:00,
2013-09-02 07:26:00,64.9,64.2,29.93,NE,45,6.0,7.0,97,0.00,,,0.00,VWS V13.01,2013-09-02 12:26:00,
2013-09-02 07:31:00,64.9,64.1,29.93,North,3,7.1,7.1,97,0.00,,,0.00,VWS V13.01,2013-09-02 12:31:00,
2013-09-02 07:36:00,64.9,64.1,29.93,NNE,31,6.6,9.8,97,0.00,,,0.00,VWS V13.01,2013-09-02 12:36:00,
2013-09-02 07:41:00,65.5,64.6,29.93,NNE,27,4.5,7.6,97,0.00,,,0.00,VWS V13.01,2013-09-02 12:41:00,
2013-09-02 07:46:00,65.4,64.5,29.93,North,359,4.2,6.7,97,0.00,,,0.00,VWS V13.01,2013-09-02 12:46:00,
2013-09-02 07:51:00,65.8,64.8,29.93,NE,35,5.0,8.9,97,0.00,,,0.00,VWS V13.01,2013-09-02 12:51:00,
2013-09-02 07:56:00,65.6,64.6,29.94,NE,34,5.6,7.1,96,0.00,,,0.00,VWS V13.01,2013-09-02 12:56:00,
2013-09-02 08:01:00,65.8,64.7,29.94,NE,41,4.2,6.2,96,0.00,,,0.00,VWS V13.01,2013-09-02 13:01:00,
2013-09-02 08:06:00,65.9,64.8,29.94,NE,35,6.3,8.3,96,0.00,,,0.00,VWS V13.01,2013-09-02 13:06:00,
2013-09-02 08:11:00,66.2,65.1,29.94,NNE,28,5.3,5.3,96,0.00,,,0.00,VWS V13.01,2013-09-02 13:11:00,
2013-09-02 08:16:00,66.6,65.4,29.94,NNW,338,7.7,7.7,96,0.00,,,0.00,VWS V13.01,2013-09-02 13:16:00,
2013-09-02 08:21:00,66.6,65.3,29.94,NNE,24,7.1,10.0,96,0.00,,,0.00,VWS V13.01,2013-09-02 13:21:00,
2013-09-02 08:26:00,66.7,65.3,29.94,NE,48,5.8,6.8,95,0.00,,,0.00,VWS V13.01,2013-09-02 13:26:00,
2013-09-02 08:31:00,67.1,65.6,29.94,NE,35,5.3,8.0,95,0.00,,,0.00,VWS V13.01,2013-09-02 13:31:00,
2013-09-02 08:36:00,67.3,65.8,29.94,North,350,6.3,7.6,95,0.00,,,0.00,VWS V13.01,2013-09-02 13:36:00,
2013-09-02 08:41:00,67.7,66.2,29.94,NE,39,6.3,8.1,95,0.00,,,0.00,VWS V13.01,2013-09-02 13:41:00,
2013-09-02 08:46:00,67.5,64.8,29.94,NW,325,4.8,7.8,91,0.00,,,0.00,VWS V13.01,2013-09-02 13:46:00,
2013-09-02 08:51:00,68.4,65.1,29.95,North,1,7.9,8.9,89,0.00,,,0.00,VWS V13.01,2013-09-02 13:51:00,
2013-09-02 08:56:00,68.4,65.4,29.95,ENE,58,2.5,6.5,90,0.00,,,0.00,VWS V13.01,2013-09-02 13:56:00,
2013-09-02 09:01:00,68.8,65.6,29.95,ENE,63,5.6,5.6,90,0.00,,,0.00,VWS V13.01,2013-09-02 14:01:00,
2013-09-02 09:06:00,69.4,66.0,29.95,NE,34,6.2,6.6,89,0.00,,,0.00,VWS V13.01,2013-09-02 14:06:00,
2013-09-02 09:11:00,69.7,65.4,29.95,NNE,15,6.7,7.2,86,0.00,,,0.00,VWS V13.01,2013-09-02 14:11:00,
2013-09-02 09:16:00,69.9,64.3,29.95,ENE,65,5.7,10.0,82,0.00,,,0.00,VWS V13.01,2013-09-02 14:16:00,
2013-09-02 09:21:00,70.2,64.8,29.95,NW,304,5.5,7.6,83,0.00,,,0.00,VWS V13.01,2013-09-02 14:21:00,
2013-09-02 09:26:00,70.6,64.3,29.95,North,359,5.8,9.3,81,0.00,,,0.00,VWS V13.01,2013-09-02 14:26:00,
2013-09-02 09:31:00,71.0,64.6,29.95,NNE,27,8.8,11.7,80,0.00,,,0.00,VWS V13.01,2013-09-02 14:31:00,
2013-09-02 09:36:00,70.8,63.8,29.96,NE,42,5.3,6.4,79,0.00,,,0.00,VWS V13.01,2013-09-02 14:36:00,
2013-09-02 09:41:00,71.6,64.5,29.96,NNE,17,6.1,9.1,78,0.00,,,0.00,VWS V13.01,2013-09-02 14:41:00,
2013-09-02 09:46:00,71.6,64.2,29.96,NE,38,6.6,8.1,77,0.00,,,0.00,VWS V13.01,2013-09-02 14:46:00,
2013-09-02 09:51:00,71.8,63.2,29.96,NE,51,8.2,8.6,74,0.00,,,0.00,VWS V13.01,2013-09-02 14:51:00,
2013-09-02 09:56:00,72.3,63.8,29.96,NNE,21,4.9,5.5,75,0.00,,,0.00,VWS V13.01,2013-09-02 14:56:00,
2013-09-02 10:01:00,72.7,63.5,29.96,North,352,3.9,6.8,73,0.00,,,0.00,VWS V13.01,2013-09-02 15:01:00,
2013-09-02 10:06:00,73.0,64.4,29.96,NE,53,3.3,3.7,74,0.00,,,0.00,VWS V13.01,2013-09-02 15:06:00,
2013-09-02 10:11:00,73.4,62.9,29.96,ENE,70,1.7,4.6,70,0.00,,,0.00,VWS V13.01,2013-09-02 15:11:00,
2013-09-02 10:16:00,73.8,63.0,29.96,NNE,27,5.8,7.2,69,0.00,,,0.00,VWS V13.01,2013-09-02 15:16:00,
2013-09-02 10:21:00,73.7,61.4,29.96,NE,35,4.6,7.2,66,0.00,,,0.00,VWS V13.01,2013-09-02 15:21:00,
2013-09-02 10:26:00,73.7,62.0,29.97,NE,35,8.0,8.0,67,0.00,,,0.00,VWS V13.01,2013-09-02 15:26:00,
2013-09-02 10:31:00,73.8,60.9,29.96,NE,35,3.9,6.5,64,0.00,,,0.00,VWS V13.01,2013-09-02 15:31:00,
2013-09-02 10:36:00,73.9,61.1,29.96,ENE,70,3.7,5.6,64,0.00,,,0.00,VWS V13.01,2013-09-02 15:36:00,
2013-09-02 10:41:00,74.3,61.5,29.96,North,359,5.2,7.6,64,0.00,,,0.00,VWS V13.01,2013-09-02 15:41:00,
2013-09-02 10:46:00,74.3,61.0,29.96,NNE,31,8.0,8.5,63,0.00,,,0.00,VWS V13.01,2013-09-02 15:46:00,
2013-09-02 10:51:00,74.9,60.0,29.97,NE,35,4.5,7.0,60,0.00,,,0.00,VWS V13.01,2013-09-02 15:51:00,
2013-09-02 10:56:00,75.0,59.1,29.97,NNW,332,6.0,6.0,58,0.00,,,0.00,VWS V13.01,2013-09-02 15:56:00,
2013-09-02 11:01:00,75.3,60.4,29.97,NNW,332,3.7,5.5,60,0.00,,,0.00,VWS V13.01,2013-09-02 16:01:00,
2013-09-02 11:06:00,75.7,59.0,29.97,ENE,65,2.4,3.1,56,0.00,,,0.00,VWS V13.01,2013-09-02 16:06:00,
2013-09-02 11:11:00,75.9,58.3,29.97,WNW,292,6.4,9.4,54,0.00,,,0.00,VWS V13.01,2013-09-02 16:11:00,
2013-09-02 11:16:00,76.1,58.5,29.97,WSW,253,4.1,6.6,54,0.00,,,0.00,VWS V13.01,2013-09-02 16:16:00,
2013-09-02 11:21:00,76.8,59.0,29.97,NNW,340,5.3,8.0,54,0.00,,,0.00,VWS V13.01,2013-09-02 16:21:00,
2013-09-02 11:26:00,76.7,59.1,29.97,West,269,2.9,4.7,54,0.00,,,0.00,VWS V13.01,2013-09-02 16:26:00,
2013-09-02 11:31:00,76.8,58.9,29.97,NW,311,6.9,6.9,54,0.00,,,0.00,VWS V13.01,2013-09-02 16:31:00,
2013-09-02 11:36:00,77.1,58.8,29.97,North,353,3.0,3.0,53,0.00,,,0.00,VWS V13.01,2013-09-02 16:36:00,
2013-09-02 11:41:00,76.7,58.2,29.96,NW,323,2.7,5.4,53,0.00,,,0.00,VWS V13.01,2013-09-02 16:41:00,
2013-09-02 11:46:00,76.7,58.7,29.96,West,274,3.2,4.8,54,0.00,,,0.00,VWS V13.01,2013-09-02 16:46:00,
2013-09-02 11:51:00,77.0,58.0,29.96,NNE,30,7.5,8.3,52,0.00,,,0.00,VWS V13.01,2013-09-02 16:51:00,
2013-09-02 11:56:00,77.3,57.6,29.96,ENE,60,3.9,5.9,51,0.00,,,0.00,VWS V13.01,2013-09-02 16:56:00,
2013-09-02 12:01:00,77.3,56.5,29.97,North,353,3.9,6.5,49,0.00,,,0.00,VWS V13.01,2013-09-02 17:01:00,
2013-09-02 12:06:00,77.7,55.8,29.97,NW,315,4.7,8.7,47,0.00,,,0.00,VWS V13.01,2013-09-02 17:06:00,
2013-09-02 12:11:00,78.3,55.7,29.96,NNE,25,7.5,8.5,46,0.00,,,0.00,VWS V13.01,2013-09-02 17:11:00,
2013-09-02 12:16:00,77.7,54.6,29.96,NE,38,5.3,5.8,45,0.00,,,0.00,VWS V13.01,2013-09-02 17:16:00,
2013-09-02 12:21:00,77.2,56.0,29.96,West,281,10.1,10.2,48,0.00,,,0.00,VWS V13.01,2013-09-02 17:21:00,
2013-09-02 12:26:00,77.8,56.3,29.96,NW,322,6.8,9.7,48,0.00,,,0.00,VWS V13.01,2013-09-02 17:26:00,
2013-09-02 12:31:00,78.1,56.0,29.96,WNW,290,0.0,2.2,46,0.00,,,0.00,VWS V13.01,2013-09-02 17:31:00,
2013-09-02 12:36:00,78.2,55.9,29.96,West,281,0.0,0.0,46,0.00,,,0.00,VWS V13.01,2013-09-02 17:36:00,
2013-09-02 12:41:00,78.5,55.2,29.96,NW,308,6.8,9.6,45,0.00,,,0.00,VWS V13.01,2013-09-02 17:41:00,
2013-09-02 12:46:00,78.5,55.2,29.96,WNW,288,5.0,5.8,45,0.00,,,0.00,VWS V13.01,2013-09-02 17:46:00,
2013-09-02 12:51:00,79.2,55.0,29.96,NW,315,6.5,8.7,43,0.00,,,0.00,VWS V13.01,2013-09-02 17:51:00,
2013-09-02 12:56:00,79.0,55.5,29.96,West,278,10.0,10.0,44,0.00,,,0.00,VWS V13.01,2013-09-02 17:56:00,
2013-09-02 13:01:00,80.0,55.3,29.96,WNW,301,5.4,9.6,43,0.00,,,0.00,VWS V13.01,2013-09-02 18:01:00,
2013-09-02 13:06:00,80.3,55.8,29.96,WNW,292,5.0,7.3,43,0.00,,,0.00,VWS V13.01,2013-09-02 18:06:00,
2013-09-02 13:11:00,80.5,55.9,29.96,WSW,240,4.8,8.1,43,0.00,,,0.00,VWS V13.01,2013-09-02 18:11:00,
2013-09-02 13:16:00,80.6,53.7,29.95,North,8,4.9,4.9,39,0.00,,,0.00,VWS V13.01,2013-09-02 18:16:00,
2013-09-02 13:21:00,80.6,53.1,29.95,NW,314,6.2,9.6,39,0.00,,,0.00,VWS V13.01,2013-09-02 18:21:00,
2013-09-02 13:26:00,80.4,52.0,29.95,NNE,24,9.6,10.0,37,0.00,,,0.00,VWS V13.01,2013-09-02 18:26:00,
2013-09-02 13:31:00,80.1,52.4,29.95,NE,37,5.0,7.1,38,0.00,,,0.00,VWS V13.01,2013-09-02 18:31:00,
2013-09-02 13:36:00,79.7,54.0,29.95,NNW,335,3.8,8.9,41,0.00,,,0.00,VWS V13.01,2013-09-02 18:36:00,
2013-09-02 13:41:00,78.9,53.6,29.95,NNE,25,3.8,5.1,42,0.00,,,0.00,VWS V13.01,2013-09-02 18:41:00,
2013-09-02 13:46:00,78.9,53.7,29.95,NNW,329,8.1,8.6,42,0.00,,,0.00,VWS V13.01,2013-09-02 18:46:00,
2013-09-02 13:51:00,79.3,54.0,29.96,West,273,5.2,7.8,42,0.00,,,0.00,VWS V13.01,2013-09-02 18:51:00,
2013-09-02 13:56:00,79.7,53.5,29.95,NW,326,8.6,11.1,40,0.00,,,0.00,VWS V13.01,2013-09-02 18:56:00,
2013-09-02 14:01:00,79.9,53.0,29.95,NW,318,6.0,9.7,39,0.00,,,0.00,VWS V13.01,2013-09-02 19:01:00,
2013-09-02 14:06:00,79.4,53.6,29.96,WNW,302,5.8,5.8,41,0.00,,,0.00,VWS V13.01,2013-09-02 19:06:00,
2013-09-02 14:11:00,79.0,53.6,29.95,NNW,343,5.7,7.4,41,0.00,,,0.00,VWS V13.01,2013-09-02 19:11:00,
2013-09-02 14:16:00,79.3,53.9,29.95,NW,318,6.4,6.6,42,0.00,,,0.00,VWS V13.01,2013-09-02 19:16:00,
2013-09-02 14:21:00,79.3,54.6,29.95,WSW,243,3.6,6.6,42,0.00,,,0.00,VWS V13.01,2013-09-02 19:21:00,
2013-09-02 14:26:00,79.9,54.0,29.95,WNW,292,4.5,7.5,41,0.00,,,0.00,VWS V13.01,2013-09-02 19:26:00,
2013-09-02 14:31:00,80.1,52.7,29.95,North,359,8.9,8.9,39,0.00,,,0.00,VWS V13.01,2013-09-02 19:31:00,
2013-09-02 14:36:00,80.3,53.7,29.95,NW,318,3.0,3.0,40,0.00,,,0.00,VWS V13.01,2013-09-02 19:36:00,
2013-09-02 14:41:00,79.8,54.1,29.95,WNW,294,5.0,7.3,41,0.00,,,0.00,VWS V13.01,2013-09-02 19:41:00,
2013-09-02 14:46:00,79.9,53.0,29.95,WNW,288,8.6,9.6,39,0.00,,,0.00,VWS V13.01,2013-09-02 19:46:00,
2013-09-02 14:51:00,80.2,52.9,29.95,NE,45,5.8,11.1,39,0.00,,,0.00,VWS V13.01,2013-09-02 19:51:00,
2013-09-02 14:56:00,80.6,53.5,29.95,NNW,335,8.6,11.9,39,0.00,,,0.00,VWS V13.01,2013-09-02 19:56:00,
2013-09-02 15:01:00,80.5,53.2,29.95,NNE,14,7.5,9.6,39,0.00,,,0.00,VWS V13.01,2013-09-02 20:01:00,
2013-09-02 15:06:00,79.7,52.9,29.94,North,359,13.9,13.9,40,0.00,,,0.00,VWS V13.01,2013-09-02 20:06:00,
2013-09-02 15:11:00,79.3,52.9,29.94,North,7,7.6,9.4,40,0.00,,,0.00,VWS V13.01,2013-09-02 20:11:00,
2013-09-02 15:16:00,79.1,54.0,29.94,NNE,25,9.7,11.7,42,0.00,,,0.00,VWS V13.01,2013-09-02 20:16:00,
2013-09-02 15:20:00,79.4,53.3,29.94,NW,307,4.7,8.1,40,0.00,,,0.00,VWS V13.01,2013-09-02 20:20:00,
2013-09-02 15:25:00,79.3,52.6,29.94,ENE,60,8.1,11.1,40,0.00,,,0.00,VWS V13.01,2013-09-02 20:25:00,
2013-09-02 15:30:00,79.5,53.4,29.94,NW,315,6.0,7.3,40,0.00,,,0.00,VWS V13.01,2013-09-02 20:30:00,
2013-09-02 15:35:00,79.4,51.1,29.94,WNW,301,11.9,13.5,37,0.00,,,0.00,VWS V13.01,2013-09-02 20:35:00,
2013-09-02 15:40:00,79.5,51.8,29.94,West,281,3.8,10.4,38,0.00,,,0.00,VWS V13.01,2013-09-02 20:40:00,
2013-09-02 15:45:00,79.3,52.8,29.94,NNW,345,5.7,5.7,40,0.00,,,0.00,VWS V13.01,2013-09-02 20:45:00,
2013-09-02 15:50:00,79.5,52.0,29.93,North,7,7.4,9.3,38,0.00,,,0.00,VWS V13.01,2013-09-02 20:50:00,
2013-09-02 15:55:00,79.8,51.2,29.94,NNW,328,6.1,10.1,37,0.00,,,0.00,VWS V13.01,2013-09-02 20:55:00,
2013-09-02 16:00:00,79.8,51.7,29.94,NNE,22,3.2,5.2,38,0.00,,,0.00,VWS V13.01,2013-09-02 21:00:00,
2013-09-02 16:05:00,80.1,51.8,29.94,NNW,329,4.0,6.2,37,0.00,,,0.00,VWS V13.01,2013-09-02 21:05:00,
2013-09-02 16:10:00,80.0,50.7,29.93,NW,316,6.0,8.8,36,0.00,,,0.00,VWS V13.01,2013-09-02 21:10:00,
2013-09-02 16:15:00,79.8,51.0,29.93,WNW,300,9.9,9.9,37,0.00,,,0.00,VWS V13.01,2013-09-02 21:15:00,
2013-09-02 16:20:00,79.4,51.0,29.93,NW,323,7.4,9.1,37,0.00,,,0.00,VWS V13.01,2013-09-02 21:20:00,
2013-09-02 16:25:00,79.3,50.8,29.93,NW,311,8.0,10.2,37,0.00,,,0.00,VWS V13.01,2013-09-02 21:25:00,
2013-09-02 16:30:00,79.3,51.2,29.93,WNW,302,7.5,11.4,38,0.00,,,0.00,VWS V13.01,2013-09-02 21:30:00,
2013-09-02 16:35:00,79.1,50.7,29.93,WNW,298,10.6,11.9,37,0.00,,,0.00,VWS V13.01,2013-09-02 21:35:00,
2013-09-02 16:40:00,78.9,50.5,29.94,NW,305,10.1,10.4,37,0.00,,,0.00,VWS V13.01,2013-09-02 21:40:00,
2013-09-02 16:45:00,78.5,50.2,29.94,West,278,8.0,9.9,37,0.00,,,0.00,VWS V13.01,2013-09-02 21:45:00,
2013-09-02 16:50:00,78.9,50.6,29.94,West,260,7.5,9.4,37,0.00,,,0.00,VWS V13.01,2013-09-02 21:50:00,
2013-09-02 16:55:00,78.9,49.6,29.94,WNW,292,10.5,12.7,36,0.00,,,0.00,VWS V13.01,2013-09-02 21:55:00,
2013-09-02 17:00:00,79.3,49.8,29.94,West,273,6.9,10.4,36,0.00,,,0.00,VWS V13.01,2013-09-02 22:00:00,
2013-09-02 17:05:00,79.3,49.1,29.94,NNW,336,7.1,7.5,35,0.00,,,0.00,VWS V13.01,2013-09-02 22:05:00,
2013-09-02 17:10:00,79.3,49.4,29.94,WNW,284,11.4,12.6,35,0.00,,,0.00,VWS V13.01,2013-09-02 22:10:00,
2013-09-02 17:15:00,79.3,49.9,29.94,WNW,301,7.7,12.3,36,0.00,,,0.00,VWS V13.01,2013-09-02 22:15:00,
2013-09-02 17:20:00,79.3,49.2,29.94,NW,319,5.7,7.6,35,0.00,,,0.00,VWS V13.01,2013-09-02 22:20:00,
2013-09-02 17:25:00,79.1,49.6,29.94,WNW,301,7.8,9.5,36,0.00,,,0.00,VWS V13.01,2013-09-02 22:25:00,
2013-09-02 17:30:00,79.2,50.2,29.94,WNW,295,11.9,12.2,36,0.00,,,0.00,VWS V13.01,2013-09-02 22:30:00,
2013-09-02 17:35:00,78.8,50.1,29.93,NNW,330,10.1,10.1,37,0.00,,,0.00,VWS V13.01,2013-09-02 22:35:00,
2013-09-02 17:40:00,78.3,49.5,29.94,WNW,291,6.9,8.9,36,0.00,,,0.00,VWS V13.01,2013-09-02 22:40:00,
2013-09-02 17:45:00,78.4,50.1,29.94,WNW,290,6.3,10.1,37,0.00,,,0.00,VWS V13.01,2013-09-02 22:45:00,
2013-09-02 17:50:00,78.4,49.3,29.94,NNW,336,8.9,9.1,36,0.00,,,0.00,VWS V13.01,2013-09-02 22:50:00,
2013-09-02 17:55:00,78.5,49.5,29.94,NW,321,7.3,10.2,36,0.00,,,0.00,VWS V13.01,2013-09-02 22:55:00,
2013-09-02 18:00:00,78.3,50.1,29.94,WNW,302,5.0,6.8,37,0.00,,,0.00,VWS V13.01,2013-09-02 23:00:00,
2013-09-02 18:05:00,78.1,49.7,29.94,WNW,298,7.0,9.7,37,0.00,,,0.00,VWS V13.01,2013-09-02 23:05:00,
2013-09-02 18:10:00,78.1,50.2,29.94,NW,305,8.8,8.9,38,0.00,,,0.00,VWS V13.01,2013-09-02 23:10:00,
2013-09-02 18:15:00,77.5,50.1,29.94,WNW,284,7.5,10.1,38,0.00,,,0.00,VWS V13.01,2013-09-02 23:15:00,
2013-09-02 18:20:00,77.7,50.7,29.94,NW,312,6.8,7.4,39,0.00,,,0.00,VWS V13.01,2013-09-02 23:20:00,
2013-09-02 18:25:00,77.3,50.9,29.94,NNW,332,4.1,5.9,40,0.00,,,0.00,VWS V13.01,2013-09-02 23:25:00,
2013-09-02 18:30:00,76.9,50.8,29.94,NW,307,5.6,8.3,40,0.00,,,0.00,VWS V13.01,2013-09-02 23:30:00,
2013-09-02 18:35:00,77.0,51.6,29.94,WNW,302,7.3,8.0,41,0.00,,,0.00,VWS V13.01,2013-09-02 23:35:00,
2013-09-02 18:40:00,76.7,51.6,29.94,NW,319,5.7,9.3,42,0.00,,,0.00,VWS V13.01,2013-09-02 23:40:00,
2013-09-02 18:45:00,75.9,50.8,29.94,WNW,302,4.7,6.9,41,0.00,,,0.00,VWS V13.01,2013-09-02 23:45:00,
2013-09-02 18:50:00,76.4,51.3,29.94,NW,307,7.1,8.3,42,0.00,,,0.00,VWS V13.01,2013-09-02 23:50:00,
2013-09-02 18:55:00,76.6,51.3,29.94,NW,314,6.6,7.7,41,0.00,,,0.00,VWS V13.01,2013-09-02 23:55:00,
2013-09-02 19:01:00,75.8,50.7,29.94,NNW,330,4.5,7.3,41,0.00,,,0.00,VWS V13.01,2013-09-03 00:01:00,
2013-09-02 19:06:00,76.0,51.2,29.94,NW,316,6.4,7.6,42,0.00,,,0.00,VWS V13.01,2013-09-03 00:06:00,
2013-09-02 19:11:00,75.6,51.0,29.94,NW,318,5.8,6.2,42,0.00,,,0.00,VWS V13.01,2013-09-03 00:11:00,
2013-09-02 19:16:00,75.2,51.1,29.94,NNW,335,4.0,6.1,43,0.00,,,0.00,VWS V13.01,2013-09-03 00:16:00,
2013-09-02 19:21:00,74.4,50.8,29.94,NW,308,5.6,6.1,44,0.00,,,0.00,VWS V13.01,2013-09-03 00:21:00,
2013-09-02 19:26:00,74.6,51.4,29.94,NW,305,5.2,6.3,44,0.00,,,0.00,VWS V13.01,2013-09-03 00:26:00,
2013-09-02 19:31:00,73.9,51.0,29.94,WNW,292,5.5,6.4,45,0.00,,,0.00,VWS V13.01,2013-09-03 00:31:00,
2013-09-02 19:36:00,74.0,51.3,29.95,NW,319,4.0,6.7,45,0.00,,,0.00,VWS V13.01,2013-09-03 00:36:00,
2013-09-02 19:41:00,73.3,50.9,29.95,NW,308,7.0,7.0,45,0.00,,,0.00,VWS V13.01,2013-09-03 00:41:00,
2013-09-02 19:46:00,72.8,51.9,29.95,NNW,338,2.0,4.7,48,0.00,,,0.00,VWS V13.01,2013-09-03 00:46:00,
2013-09-02 19:51:00,72.3,52.1,29.95,NNW,342,1.2,2.8,49,0.00,,,0.00,VWS V13.01,2013-09-03 00:51:00,
2013-09-02 19:56:00,71.8,52.3,29.95,NNW,335,5.2,5.5,50,0.00,,,0.00,VWS V13.01,2013-09-03 00:56:00,
2013-09-02 20:01:00,71.2,52.4,29.95,North,8,1.7,5.8,52,0.00,,,0.00,VWS V13.01,2013-09-03 01:01:00,
2013-09-02 20:06:00,70.5,52.3,29.95,NW,319,4.1,7.0,52,0.00,,,0.00,VWS V13.01,2013-09-03 01:06:00,
2013-09-02 20:11:00,70.4,52.5,29.95,NW,319,7.7,7.7,53,0.00,,,0.00,VWS V13.01,2013-09-03 01:11:00,
2013-09-02 20:16:00,70.1,52.0,29.96,NW,319,4.2,7.8,53,0.00,,,0.00,VWS V13.01,2013-09-03 01:16:00,
2013-09-02 20:21:00,70.4,52.4,29.96,NNW,332,4.4,6.8,53,0.00,,,0.00,VWS V13.01,2013-09-03 01:21:00,
2013-09-02 20:26:00,70.2,52.0,29.96,NW,322,5.0,7.5,52,0.00,,,0.00,VWS V13.01,2013-09-03 01:26:00,
2013-09-02 20:31:00,70.1,51.8,29.96,NW,305,4.3,8.7,52,0.00,,,0.00,VWS V13.01,2013-09-03 01:31:00,
2013-09-02 20:36:00,70.5,52.2,29.97,NW,308,5.3,7.7,52,0.00,,,0.00,VWS V13.01,2013-09-03 01:36:00,
2013-09-02 20:41:00,70.1,51.7,29.97,NW,322,8.8,8.8,52,0.00,,,0.00,VWS V13.01,2013-09-03 01:41:00,
2013-09-02 20:46:00,69.7,51.3,29.97,NW,308,5.3,8.2,52,0.00,,,0.00,VWS V13.01,2013-09-03 01:46:00,
2013-09-02 20:50:00,69.7,51.2,29.97,NNW,335,5.8,8.4,52,0.00,,,0.00,VWS V13.01,2013-09-03 01:50:00,
2013-09-02 20:55:00,69.8,51.3,29.97,NNW,328,6.8,8.7,52,0.00,,,0.00,VWS V13.01,2013-09-03 01:55:00,
2013-09-02 21:00:00,69.5,51.2,29.97,NW,307,3.0,5.7,52,0.00,,,0.00,VWS V13.01,2013-09-03 02:00:00,
2013-09-02 21:05:00,69.5,51.7,29.97,NNE,30,0.0,2.4,53,0.00,,,0.00,VWS V13.01,2013-09-03 02:05:00,
2013-09-02 21:10:00,69.0,51.4,29.97,NNE,30,0.0,0.0,54,0.00,,,0.00,VWS V13.01,2013-09-03 02:10:00,
2013-09-02 21:15:00,68.7,51.5,29.97,WNW,294,0.0,0.6,54,0.00,,,0.00,VWS V13.01,2013-09-03 02:15:00,
2013-09-02 21:20:00,68.5,51.5,29.98,NW,307,0.0,0.0,54,0.00,,,0.00,VWS V13.01,2013-09-03 02:20:00,
2013-09-02 21:25:00,68.5,51.7,29.98,WNW,302,1.2,3.3,55,0.00,,,0.00,VWS V13.01,2013-09-03 02:25:00,
2013-09-02 21:30:00,68.5,52.0,29.98,NW,323,1.9,3.2,56,0.00,,,0.00,VWS V13.01,2013-09-03 02:30:00,
2013-09-02 21:35:00,68.1,51.7,29.98,North,359,2.2,4.2,56,0.00,,,0.00,VWS V13.01,2013-09-03 02:35:00,
2013-09-02 21:40:00,68.0,51.7,29.98,NW,321,0.0,0.0,56,0.00,,,0.00,VWS V13.01,2013-09-03 02:40:00,
2013-09-02 21:45:00,68.2,52.2,29.98,North,353,3.7,4.9,56,0.00,,,0.00,VWS V13.01,2013-09-03 02:45:00,
2013-09-02 21:50:00,67.7,51.8,29.98,NNW,332,2.7,2.7,57,0.00,,,0.00,VWS V13.01,2013-09-03 02:50:00,
2013-09-02 21:55:00,67.8,52.2,29.99,NE,34,0.0,0.0,57,0.00,,,0.00,VWS V13.01,2013-09-03 02:55:00,
2013-09-02 22:00:00,67.7,52.4,29.99,NE,34,0.0,0.0,58,0.00,,,0.00,VWS V13.01,2013-09-03 03:00:00,
2013-09-02 22:05:00,67.1,52.2,29.99,NNW,336,1.2,3.8,59,0.00,,,0.00,VWS V13.01,2013-09-03 03:05:00,
2013-09-02 22:10:00,67.4,52.7,29.99,NNW,346,0.0,0.0,59,0.00,,,0.00,VWS V13.01,2013-09-03 03:10:00,
2013-09-02 22:15:00,66.8,52.6,29.99,North,11,2.3,3.4,60,0.00,,,0.00,VWS V13.01,2013-09-03 03:15:00,
2013-09-02 22:20:00,66.8,52.9,29.99,NNE,13,3.0,3.2,61,0.00,,,0.00,VWS V13.01,2013-09-03 03:20:00,
2013-09-02 22:25:00,66.5,53.0,29.99,North,3,2.4,4.5,62,0.00,,,0.00,VWS V13.01,2013-09-03 03:25:00,
2013-09-02 22:30:00,67.0,53.7,29.99,North,7,0.0,0.0,62,0.00,,,0.00,VWS V13.01,2013-09-03 03:30:00,
2013-09-02 22:35:00,66.7,53.5,29.99,NW,321,1.6,3.2,63,0.00,,,0.00,VWS V13.01,2013-09-03 03:35:00,
2013-09-02 22:40:00,66.4,53.4,29.99,North,359,0.0,0.0,63,0.00,,,0.00,VWS V13.01,2013-09-03 03:40:00,
2013-09-02 22:45:00,66.3,53.5,29.99,North,7,1.7,3.2,63,0.00,,,0.00,VWS V13.01,2013-09-03 03:45:00,
2013-09-02 22:50:00,66.3,53.8,30.00,NNW,346,0.0,1.2,64,0.00,,,0.00,VWS V13.01,2013-09-03 03:50:00,
2013-09-02 22:55:00,66.0,53.8,30.00,NNW,346,0.0,0.0,65,0.00,,,0.00,VWS V13.01,2013-09-03 03:55:00,
2013-09-02 23:00:00,65.9,54.1,30.00,NNW,343,0.0,1.0,66,0.00,,,0.00,VWS V13.01,2013-09-03 04:00:00,
2013-09-02 23:01:00,65.8,54.1,30.00,NNW,343,0.0,0.0,66,0.00,,,0.00,VWS V13.01,2013-09-03 04:01:00,
2013-09-02 23:02:00,65.7,54.1,30.00,NNW,340,0.0,1.9,66,0.00,,,0.00,VWS V13.01,2013-09-03 04:02:00,
2013-09-02 23:03:00,65.8,54.3,30.00,NNW,340,0.0,0.0,66,0.00,,,0.00,VWS V13.01,2013-09-03 04:03:00,
2013-09-02 23:08:00,65.5,54.3,30.00,NE,55,1.6,1.6,67,0.00,,,0.00,VWS V13.01,2013-09-03 04:08:00,
2013-09-02 23:13:00,64.9,54.4,30.00,North,359,0.0,0.0,69,0.00,,,0.00,VWS V13.01,2013-09-03 04:13:00,
2013-09-02 23:18:00,65.1,54.9,30.00,NE,35,1.1,1.4,70,0.00,,,0.00,VWS V13.01,2013-09-03 04:18:00,
2013-09-02 23:23:00,65.1,55.4,30.00,NE,39,2.5,2.5,71,0.00,,,0.00,VWS V13.01,2013-09-03 04:23:00,
2013-09-02 23:28:00,65.1,55.9,30.00,North,7,1.1,2.8,72,0.00,,,0.00,VWS V13.01,2013-09-03 04:28:00,
2013-09-02 23:33:00,64.7,55.6,30.00,NE,46,0.0,0.0,72,0.00,,,0.00,VWS V13.01,2013-09-03 04:33:00,
2013-09-02 23:38:00,64.4,55.9,30.00,North,3,3.0,3.0,74,0.00,,,0.00,VWS V13.01,2013-09-03 04:38:00,
2013-09-02 23:43:00,64.1,56.0,30.00,NNE,13,4.5,5.0,75,0.00,,,0.00,VWS V13.01,2013-09-03 04:43:00,
2013-09-02 23:48:00,64.0,56.7,30.00,NNE,21,6.0,6.2,77,0.00,,,0.00,VWS V13.01,2013-09-03 04:48:00,
2013-09-02 23:53:00,64.3,57.4,30.00,North,7,6.6,6.6,78,0.00,,,0.00,VWS V13.01,2013-09-03 04:53:00,